sensor_id;sensor_type;location;lat;lon;timestamp;pressure;altitude;pressure_sealevel;temperature;humidity
52469;BME280;38381;53.688;10.776;2023-05-02T00:03:15;101131.34;;;11.38;66.72
52469;BME280;38381;53.688;10.776;2023-05-02T00:08:16;101131.31;;;11.37;66.91
52469;BME280;38381;53.688;10.776;2023-05-02T00:13:16;101134.78;;;11.37;66.50
52469;BME280;38381;53.688;10.776;2023-05-02T00:18:17;101128.72;;;11.38;66.75
52469;BME280;38381;53.688;10.776;2023-05-02T00:23:17;101126.00;;;11.24;67.91
52469;BME280;38381;53.688;10.776;2023-05-02T00:28:18;101138.19;;;11.33;67.72
52469;BME280;38381;53.688;10.776;2023-05-02T00:33:18;101136.34;;;11.20;69.06
52469;BME280;38381;53.688;10.776;2023-05-02T00:38:18;101134.59;;;11.19;69.83
52469;BME280;38381;53.688;10.776;2023-05-02T00:43:19;101142.38;;;11.16;71.25
52469;BME280;38381;53.688;10.776;2023-05-02T00:48:20;101150.91;;;11.05;72.62
52469;BME280;38381;53.688;10.776;2023-05-02T00:53:20;101155.22;;;11.03;74.23
52469;BME280;38381;53.688;10.776;2023-05-02T00:58:21;101149.09;;;10.98;75.54
52469;BME280;38381;53.688;10.776;2023-05-02T01:03:35;101146.59;;;11.06;75.51
52469;BME280;38381;53.688;10.776;2023-05-02T01:09:12;101134.38;;;10.99;76.41
52469;BME280;38381;53.688;10.776;2023-05-02T01:14:17;101135.28;;;11.01;76.26
52469;BME280;38381;53.688;10.776;2023-05-02T01:19:21;101131.72;;;10.91;76.92
52469;BME280;38381;53.688;10.776;2023-05-02T01:24:27;101125.56;;;10.84;77.52
52469;BME280;38381;53.688;10.776;2023-05-02T01:29:30;101129.00;;;10.82;78.48
52469;BME280;38381;53.688;10.776;2023-05-02T01:34:32;101135.03;;;10.79;77.60
52469;BME280;38381;53.688;10.776;2023-05-02T01:39:34;101137.53;;;10.69;78.80
52469;BME280;38381;53.688;10.776;2023-05-02T01:44:36;101147.97;;;10.76;78.24
52469;BME280;38381;53.688;10.776;2023-05-02T01:49:37;101147.94;;;10.73;79.28
52469;BME280;38381;53.688;10.776;2023-05-02T01:54:40;101150.59;;;10.78;79.15
52469;BME280;38381;53.688;10.776;2023-05-02T01:59:42;101148.88;;;10.77;79.69
52469;BME280;38381;53.688;10.776;2023-05-02T02:04:44;101154.84;;;10.74;80.75
52469;BME280;38381;53.688;10.776;2023-05-02T02:09:46;101158.31;;;10.73;80.98
52469;BME280;38381;53.688;10.776;2023-05-02T02:14:50;101162.59;;;10.70;81.32
52469;BME280;38381;53.688;10.776;2023-05-02T02:19:55;101170.34;;;10.68;81.15
52469;BME280;38381;53.688;10.776;2023-05-02T02:25:00;101161.69;;;10.67;82.19
52469;BME280;38381;53.688;10.776;2023-05-02T02:30:00;101172.13;;;10.71;82.17
52469;BME280;38381;53.688;10.776;2023-05-02T02:35:01;101178.13;;;10.68;83.25
52469;BME280;38381;53.688;10.776;2023-05-02T02:46:16;101191.19;;;10.73;83.38
52469;BME280;38381;53.688;10.776;2023-05-02T02:56:31;101200.69;;;10.74;83.87
52469;BME280;38381;53.688;10.776;2023-05-02T03:01:38;101205.09;;;10.79;84.51
52469;BME280;38381;53.688;10.776;2023-05-02T03:06:39;101219.81;;;10.79;84.57
52469;BME280;38381;53.688;10.776;2023-05-02T03:11:40;101218.97;;;10.83;84.74
52469;BME280;38381;53.688;10.776;2023-05-02T03:16:41;101226.72;;;10.80;85.54
52469;BME280;38381;53.688;10.776;2023-05-02T03:21:41;101237.16;;;10.86;86.18
52469;BME280;38381;53.688;10.776;2023-05-02T03:26:42;101239.63;;;10.75;86.58
52469;BME280;38381;53.688;10.776;2023-05-02T03:31:43;101252.28;;;10.52;87.18
52469;BME280;38381;53.688;10.776;2023-05-02T03:36:43;101270.13;;;10.32;87.94
52469;BME280;38381;53.688;10.776;2023-05-02T03:41:43;101275.63;;;9.99;87.90
52469;BME280;38381;53.688;10.776;2023-05-02T03:46:44;101298.50;;;9.76;87.96
52469;BME280;38381;53.688;10.776;2023-05-02T03:51:45;101303.50;;;9.65;87.76
52469;BME280;38381;53.688;10.776;2023-05-02T03:56:45;101308.16;;;9.37;86.71
52469;BME280;38381;53.688;10.776;2023-05-02T04:01:50;101336.09;;;9.13;86.93
52469;BME280;38381;53.688;10.776;2023-05-02T04:06:50;101336.47;;;8.92;86.97
52469;BME280;38381;53.688;10.776;2023-05-02T04:11:51;101358.97;;;8.94;86.16
52469;BME280;38381;53.688;10.776;2023-05-02T04:16:51;101352.66;;;8.83;85.86
52469;BME280;38381;53.688;10.776;2023-05-02T04:21:52;101377.94;;;8.25;84.64
52469;BME280;38381;53.688;10.776;2023-05-02T04:26:53;101393.09;;;8.43;82.46
52469;BME280;38381;53.688;10.776;2023-05-02T04:31:53;101412.28;;;8.21;82.23
52469;BME280;38381;53.688;10.776;2023-05-02T04:36:54;101423.34;;;8.15;81.10
52469;BME280;38381;53.688;10.776;2023-05-02T04:41:54;101437.41;;;7.95;82.25
52469;BME280;38381;53.688;10.776;2023-05-02T04:46:55;101455.03;;;8.10;81.64
52469;BME280;38381;53.688;10.776;2023-05-02T04:51:55;101463.34;;;7.99;81.49
52469;BME280;38381;53.688;10.776;2023-05-02T04:56:55;101479.34;;;7.86;81.40
52469;BME280;38381;53.688;10.776;2023-05-02T05:01:56;101480.31;;;7.90;81.05
52469;BME280;38381;53.688;10.776;2023-05-02T05:06:56;101503.78;;;7.69;81.24
52469;BME280;38381;53.688;10.776;2023-05-02T05:11:57;101508.94;;;7.69;80.58
52469;BME280;38381;53.688;10.776;2023-05-02T05:16:57;101521.31;;;7.79;79.80
52469;BME280;38381;53.688;10.776;2023-05-02T05:21:58;101523.88;;;7.77;79.43
52469;BME280;38381;53.688;10.776;2023-05-02T05:26:59;101538.25;;;7.69;79.62
52469;BME280;38381;53.688;10.776;2023-05-02T05:31:59;101541.03;;;7.77;78.57
52469;BME280;38381;53.688;10.776;2023-05-02T05:36:59;101551.69;;;7.59;78.33
52469;BME280;38381;53.688;10.776;2023-05-02T05:42:00;101560.25;;;7.58;76.52
52469;BME280;38381;53.688;10.776;2023-05-02T05:47:01;101563.63;;;7.28;75.88
52469;BME280;38381;53.688;10.776;2023-05-02T05:52:02;101567.00;;;7.27;75.22
52469;BME280;38381;53.688;10.776;2023-05-02T05:57:02;101578.53;;;7.37;75.29
52469;BME280;38381;53.688;10.776;2023-05-02T06:02:03;101569.72;;;7.32;71.49
52469;BME280;38381;53.688;10.776;2023-05-02T06:07:04;101592.66;;;7.22;70.47
52469;BME280;38381;53.688;10.776;2023-05-02T06:12:04;101612.84;;;7.34;69.15
52469;BME280;38381;53.688;10.776;2023-05-02T06:17:05;101606.19;;;7.41;67.62
52469;BME280;38381;53.688;10.776;2023-05-02T06:22:05;101621.94;;;7.50;67.69
52469;BME280;38381;53.688;10.776;2023-05-02T06:27:06;101624.56;;;7.24;67.95
52469;BME280;38381;53.688;10.776;2023-05-02T06:32:06;101633.13;;;7.49;67.56
52469;BME280;38381;53.688;10.776;2023-05-02T06:37:06;101645.75;;;7.41;67.51
52469;BME280;38381;53.688;10.776;2023-05-02T06:42:07;101643.28;;;7.44;66.37
52469;BME280;38381;53.688;10.776;2023-05-02T06:47:07;101656.59;;;7.57;66.49
52469;BME280;38381;53.688;10.776;2023-05-02T06:52:08;101662.28;;;7.47;67.36
52469;BME280;38381;53.688;10.776;2023-05-02T06:57:08;101668.00;;;7.63;66.78
52469;BME280;38381;53.688;10.776;2023-05-02T07:02:10;101682.72;;;7.66;66.68
52469;BME280;38381;53.688;10.776;2023-05-02T07:07:10;101684.94;;;7.55;66.10
52469;BME280;38381;53.688;10.776;2023-05-02T07:12:11;101705.03;;;7.64;65.27
52469;BME280;38381;53.688;10.776;2023-05-02T07:17:11;101703.28;;;7.63;64.52
52469;BME280;38381;53.688;10.776;2023-05-02T07:22:12;101720.25;;;7.56;63.93
52469;BME280;38381;53.688;10.776;2023-05-02T07:27:12;101727.31;;;7.62;63.96
52469;BME280;38381;53.688;10.776;2023-05-02T07:32:13;101729.72;;;7.81;63.72
52469;BME280;38381;53.688;10.776;2023-05-02T07:37:13;101734.09;;;7.84;62.58
52469;BME280;38381;53.688;10.776;2023-05-02T07:42:13;101741.63;;;7.78;62.56
52469;BME280;38381;53.688;10.776;2023-05-02T07:47:14;101749.44;;;7.79;61.06
52469;BME280;38381;53.688;10.776;2023-05-02T07:52:14;101755.44;;;8.04;60.31
52469;BME280;38381;53.688;10.776;2023-05-02T07:57:15;101744.56;;;8.14;60.19
52469;BME280;38381;53.688;10.776;2023-05-02T08:02:16;101751.06;;;8.29;59.75
52469;BME280;38381;53.688;10.776;2023-05-02T08:07:19;101770.22;;;8.10;60.50
52469;BME280;38381;53.688;10.776;2023-05-02T08:12:20;101776.97;;;8.32;60.21
52469;BME280;38381;53.688;10.776;2023-05-02T08:17:20;101783.72;;;8.26;58.65
52469;BME280;38381;53.688;10.776;2023-05-02T08:22:21;101781.69;;;8.43;57.67
52469;BME280;38381;53.688;10.776;2023-05-02T08:27:22;101783.59;;;8.49;58.17
52469;BME280;38381;53.688;10.776;2023-05-02T08:32:22;101803.38;;;8.47;57.32
52469;BME280;38381;53.688;10.776;2023-05-02T08:37:22;101794.53;;;8.69;58.47
52469;BME280;38381;53.688;10.776;2023-05-02T08:42:23;101808.16;;;8.91;56.44
52469;BME280;38381;53.688;10.776;2023-05-02T08:47:26;101806.16;;;8.82;55.69
52469;BME280;38381;53.688;10.776;2023-05-02T08:52:27;101813.09;;;8.83;55.35
52469;BME280;38381;53.688;10.776;2023-05-02T08:57:29;101824.34;;;8.85;55.72
52469;BME280;38381;53.688;10.776;2023-05-02T09:07:43;101834.50;;;9.07;55.06
52469;BME280;38381;53.688;10.776;2023-05-02T09:12:45;101842.56;;;9.17;55.33
52469;BME280;38381;53.688;10.776;2023-05-02T09:17:46;101855.94;;;9.32;54.70
52469;BME280;38381;53.688;10.776;2023-05-02T09:22:48;101860.88;;;9.24;54.79
52469;BME280;38381;53.688;10.776;2023-05-02T09:27:50;101869.63;;;9.28;53.93
52469;BME280;38381;53.688;10.776;2023-05-02T09:32:51;101876.19;;;9.45;53.39
52469;BME280;38381;53.688;10.776;2023-05-02T09:37:56;101880.56;;;9.48;53.79
52469;BME280;38381;53.688;10.776;2023-05-02T09:42:57;101870.97;;;9.74;53.71
52469;BME280;38381;53.688;10.776;2023-05-02T09:48:01;101880.91;;;9.91;54.34
52469;BME280;38381;53.688;10.776;2023-05-02T09:53:07;101884.53;;;9.97;52.31
52469;BME280;38381;53.688;10.776;2023-05-02T09:58:21;101885.19;;;10.22;52.41
52469;BME280;38381;53.688;10.776;2023-05-02T10:03:24;101888.03;;;10.31;51.40
52469;BME280;38381;53.688;10.776;2023-05-02T10:08:27;101884.56;;;10.65;51.07
52469;BME280;38381;53.688;10.776;2023-05-02T10:13:29;101898.69;;;10.77;51.01
52469;BME280;38381;53.688;10.776;2023-05-02T10:18:46;101887.59;;;10.84;51.44
52469;BME280;38381;53.688;10.776;2023-05-02T10:23:47;101891.63;;;11.07;51.26
52469;BME280;38381;53.688;10.776;2023-05-02T10:28:49;101886.66;;;11.18;49.64
52469;BME280;38381;53.688;10.776;2023-05-02T10:33:50;101881.88;;;11.37;49.22
52469;BME280;38381;53.688;10.776;2023-05-02T10:38:51;101880.75;;;11.68;48.22
52469;BME280;38381;53.688;10.776;2023-05-02T10:43:52;101872.28;;;11.78;48.81
52469;BME280;38381;53.688;10.776;2023-05-02T10:49:06;101896.88;;;11.93;50.08
52469;BME280;38381;53.688;10.776;2023-05-02T11:04:59;101909.03;;;11.94;49.62
52469;BME280;38381;53.688;10.776;2023-05-02T11:10:23;101901.31;;;11.98;47.07
52469;BME280;38381;53.688;10.776;2023-05-02T11:20:31;101913.97;;;11.81;49.37
52469;BME280;38381;53.688;10.776;2023-05-02T11:25:36;101922.53;;;11.79;49.60
52469;BME280;38381;53.688;10.776;2023-05-02T11:30:41;101921.72;;;12.22;48.17
52469;BME280;38381;53.688;10.776;2023-05-02T11:35:43;101921.72;;;12.24;48.71
52469;BME280;38381;53.688;10.776;2023-05-02T11:40:58;101933.56;;;12.08;49.92
52469;BME280;38381;53.688;10.776;2023-05-02T11:45:59;101939.03;;;11.81;50.66
52469;BME280;38381;53.688;10.776;2023-05-02T11:51:00;101940.84;;;11.83;50.71
52469;BME280;38381;53.688;10.776;2023-05-02T11:56:06;101949.94;;;12.02;51.36
52469;BME280;38381;53.688;10.776;2023-05-02T12:01:12;101954.00;;;11.90;51.30
52469;BME280;38381;53.688;10.776;2023-05-02T12:06:15;101968.53;;;11.81;48.90
52469;BME280;38381;53.688;10.776;2023-05-02T12:11:17;101969.31;;;11.79;48.98
52469;BME280;38381;53.688;10.776;2023-05-02T12:16:18;101970.75;;;12.04;47.57
52469;BME280;38381;53.688;10.776;2023-05-02T12:21:18;101981.28;;;11.69;48.55
52469;BME280;38381;53.688;10.776;2023-05-02T12:26:21;101977.75;;;12.06;48.84
52469;BME280;38381;53.688;10.776;2023-05-02T12:31:25;101984.50;;;11.98;48.01
52469;BME280;38381;53.688;10.776;2023-05-02T12:36:27;101984.44;;;11.95;48.25
52469;BME280;38381;53.688;10.776;2023-05-02T12:41:32;101991.50;;;12.01;48.24
52469;BME280;38381;53.688;10.776;2023-05-02T12:46:32;101995.06;;;12.07;47.80
52469;BME280;38381;53.688;10.776;2023-05-02T12:51:33;101998.34;;;11.97;47.91
52469;BME280;38381;53.688;10.776;2023-05-02T12:56:40;102009.59;;;11.96;48.72
52469;BME280;38381;53.688;10.776;2023-05-02T13:01:42;102012.19;;;11.58;48.94
52469;BME280;38381;53.688;10.776;2023-05-02T13:06:42;102019.25;;;11.64;49.63
52469;BME280;38381;53.688;10.776;2023-05-02T13:11:43;102012.88;;;11.50;48.14
52469;BME280;38381;53.688;10.776;2023-05-02T13:16:44;102016.75;;;11.67;47.80
52469;BME280;38381;53.688;10.776;2023-05-02T13:21:45;102019.13;;;11.58;47.71
52469;BME280;38381;53.688;10.776;2023-05-02T13:26:45;102023.50;;;11.60;49.69
52469;BME280;38381;53.688;10.776;2023-05-02T13:31:46;102038.13;;;11.55;50.46
52469;BME280;38381;53.688;10.776;2023-05-02T13:36:46;102041.22;;;11.39;49.68
52469;BME280;38381;53.688;10.776;2023-05-02T13:41:46;102037.19;;;11.52;49.47
52469;BME280;38381;53.688;10.776;2023-05-02T13:46:47;102044.47;;;11.30;49.42
52469;BME280;38381;53.688;10.776;2023-05-02T13:51:47;102045.75;;;11.47;48.78
52469;BME280;38381;53.688;10.776;2023-05-02T13:56:48;102050.44;;;11.64;48.26
52469;BME280;38381;53.688;10.776;2023-05-02T14:01:48;102058.81;;;11.51;47.47
52469;BME280;38381;53.688;10.776;2023-05-02T14:06:48;102066.63;;;11.52;47.75
52469;BME280;38381;53.688;10.776;2023-05-02T14:11:49;102064.84;;;11.50;47.88
52469;BME280;38381;53.688;10.776;2023-05-02T14:16:49;102063.78;;;11.41;47.33
52469;BME280;38381;53.688;10.776;2023-05-02T14:21:50;102066.06;;;11.29;47.71
52469;BME280;38381;53.688;10.776;2023-05-02T14:26:51;102072.94;;;11.27;48.17
52469;BME280;38381;53.688;10.776;2023-05-02T14:31:51;102074.25;;;11.44;49.33
52469;BME280;38381;53.688;10.776;2023-05-02T14:36:54;102087.63;;;11.25;49.46
52469;BME280;38381;53.688;10.776;2023-05-02T14:41:55;102081.47;;;11.21;48.56
52469;BME280;38381;53.688;10.776;2023-05-02T14:46:55;102094.13;;;11.07;47.56
52469;BME280;38381;53.688;10.776;2023-05-02T14:51:56;102086.50;;;11.15;47.73
52469;BME280;38381;53.688;10.776;2023-05-02T14:56:56;102083.47;;;10.98;47.87
52469;BME280;38381;53.688;10.776;2023-05-02T15:01:58;102094.88;;;11.03;50.08
52469;BME280;38381;53.688;10.776;2023-05-02T15:06:59;102098.63;;;11.15;50.84
52469;BME280;38381;53.688;10.776;2023-05-02T15:12:00;102101.47;;;11.24;50.33
52469;BME280;38381;53.688;10.776;2023-05-02T15:17:01;102102.53;;;11.34;50.64
52469;BME280;38381;53.688;10.776;2023-05-02T15:22:02;102113.59;;;11.25;47.84
52469;BME280;38381;53.688;10.776;2023-05-02T15:27:02;102108.19;;;11.16;48.00
52469;BME280;38381;53.688;10.776;2023-05-02T15:32:03;102114.19;;;11.15;47.74
52469;BME280;38381;53.688;10.776;2023-05-02T15:37:03;102117.19;;;10.97;49.36
52469;BME280;38381;53.688;10.776;2023-05-02T15:42:04;102120.25;;;11.14;50.62
52469;BME280;38381;53.688;10.776;2023-05-02T15:47:04;102113.84;;;11.34;49.81
52469;BME280;38381;53.688;10.776;2023-05-02T15:52:05;102115.66;;;11.38;49.04
52469;BME280;38381;53.688;10.776;2023-05-02T15:57:05;102123.91;;;11.57;49.50
52469;BME280;38381;53.688;10.776;2023-05-02T16:02:06;102127.16;;;11.84;48.42
52469;BME280;38381;53.688;10.776;2023-05-02T16:07:07;102126.03;;;11.73;46.80
52469;BME280;38381;53.688;10.776;2023-05-02T16:12:08;102134.59;;;11.69;46.29
52469;BME280;38381;53.688;10.776;2023-05-02T16:17:11;102141.34;;;11.61;46.96
52469;BME280;38381;53.688;10.776;2023-05-02T16:22:12;102147.97;;;11.50;48.01
52469;BME280;38381;53.688;10.776;2023-05-02T16:27:12;102143.53;;;11.45;47.28
52469;BME280;38381;53.688;10.776;2023-05-02T16:32:13;102143.06;;;11.62;47.47
52469;BME280;38381;53.688;10.776;2023-05-02T16:37:13;102145.38;;;11.50;48.02
52469;BME280;38381;53.688;10.776;2023-05-02T16:42:14;102141.50;;;11.32;47.55
52469;BME280;38381;53.688;10.776;2023-05-02T16:47:15;102150.53;;;11.48;47.65
52469;BME280;38381;53.688;10.776;2023-05-02T16:52:15;102152.34;;;11.52;46.96
52469;BME280;38381;53.688;10.776;2023-05-02T16:57:16;102154.91;;;11.49;47.07
52469;BME280;38381;53.688;10.776;2023-05-02T17:02:18;102150.31;;;11.39;47.19
52469;BME280;38381;53.688;10.776;2023-05-02T17:07:19;102162.28;;;11.32;48.28
52469;BME280;38381;53.688;10.776;2023-05-02T17:12:21;102161.16;;;11.22;47.82
52469;BME280;38381;53.688;10.776;2023-05-02T17:17:22;102178.59;;;10.96;48.54
52469;BME280;38381;53.688;10.776;2023-05-02T17:22:23;102177.75;;;10.96;50.29
52469;BME280;38381;53.688;10.776;2023-05-02T17:27:26;102185.31;;;10.88;50.44
52469;BME280;38381;53.688;10.776;2023-05-02T17:32:27;102186.63;;;10.74;51.00
52469;BME280;38381;53.688;10.776;2023-05-02T17:37:28;102185.44;;;10.62;50.41
52469;BME280;38381;53.688;10.776;2023-05-02T17:42:29;102189.13;;;10.40;51.17
52469;BME280;38381;53.688;10.776;2023-05-02T17:47:29;102198.56;;;10.38;51.34
52469;BME280;38381;53.688;10.776;2023-05-02T17:52:30;102198.44;;;10.35;51.76
52469;BME280;38381;53.688;10.776;2023-05-02T17:57:32;102203.84;;;10.14;51.50
52469;BME280;38381;53.688;10.776;2023-05-02T18:02:35;102206.88;;;10.01;51.99
52469;BME280;38381;53.688;10.776;2023-05-02T18:07:35;102214.53;;;9.98;51.49
52469;BME280;38381;53.688;10.776;2023-05-02T18:12:36;102218.31;;;9.80;52.29
52469;BME280;38381;53.688;10.776;2023-05-02T18:17:36;102229.94;;;9.66;52.00
52469;BME280;38381;53.688;10.776;2023-05-02T18:22:37;102239.66;;;9.48;53.13
52469;BME280;38381;53.688;10.776;2023-05-02T18:27:38;102240.88;;;9.33;53.78
52469;BME280;38381;53.688;10.776;2023-05-02T18:32:38;102258.22;;;9.12;54.10
52469;BME280;38381;53.688;10.776;2023-05-02T18:37:39;102258.16;;;9.10;54.38
52469;BME280;38381;53.688;10.776;2023-05-02T18:42:39;102255.13;;;8.98;54.66
52469;BME280;38381;53.688;10.776;2023-05-02T18:47:40;102258.16;;;8.86;54.91
52469;BME280;38381;53.688;10.776;2023-05-02T18:52:43;102255.84;;;8.71;55.54
52469;BME280;38381;53.688;10.776;2023-05-02T18:57:44;102264.50;;;8.72;56.26
52469;BME280;38381;53.688;10.776;2023-05-02T19:02:44;102268.72;;;8.47;56.35
52469;BME280;38381;53.688;10.776;2023-05-02T19:07:47;102283.34;;;8.46;56.33
52469;BME280;38381;53.688;10.776;2023-05-02T19:12:48;102284.03;;;8.21;57.05
52469;BME280;38381;53.688;10.776;2023-05-02T19:17:48;102285.25;;;8.09;57.87
52469;BME280;38381;53.688;10.776;2023-05-02T19:22:49;102291.28;;;8.09;57.43
52469;BME280;38381;53.688;10.776;2023-05-02T19:27:50;102297.72;;;7.98;58.32
52469;BME280;38381;53.688;10.776;2023-05-02T19:32:51;102299.03;;;7.88;58.03
52469;BME280;38381;53.688;10.776;2023-05-02T19:37:52;102307.03;;;7.94;58.13
52469;BME280;38381;53.688;10.776;2023-05-02T19:42:52;102317.72;;;7.82;57.48
52469;BME280;38381;53.688;10.776;2023-05-02T19:47:52;102322.38;;;7.70;57.75
52469;BME280;38381;53.688;10.776;2023-05-02T19:52:53;102330.69;;;7.63;58.16
52469;BME280;38381;53.688;10.776;2023-05-02T19:57:53;102345.00;;;7.56;58.41
52469;BME280;38381;53.688;10.776;2023-05-02T20:02:54;102348.25;;;7.52;58.69
52469;BME280;38381;53.688;10.776;2023-05-02T20:07:55;102348.81;;;7.45;58.45
52469;BME280;38381;53.688;10.776;2023-05-02T20:12:55;102353.63;;;7.37;59.25
52469;BME280;38381;53.688;10.776;2023-05-02T20:17:56;102345.88;;;7.37;58.53
52469;BME280;38381;53.688;10.776;2023-05-02T20:22:57;102356.06;;;7.34;59.19
52469;BME280;38381;53.688;10.776;2023-05-02T20:27:58;102360.88;;;7.27;59.36
52469;BME280;38381;53.688;10.776;2023-05-02T20:32:58;102356.88;;;7.33;59.11
52469;BME280;38381;53.688;10.776;2023-05-02T20:37:59;102366.41;;;7.34;59.52
52469;BME280;38381;53.688;10.776;2023-05-02T20:43:00;102366.78;;;7.24;60.14
52469;BME280;38381;53.688;10.776;2023-05-02T20:48:01;102366.56;;;7.19;60.35
52469;BME280;38381;53.688;10.776;2023-05-02T20:53:01;102374.25;;;7.18;60.24
52469;BME280;38381;53.688;10.776;2023-05-02T20:58:03;102377.25;;;7.09;61.14
52469;BME280;38381;53.688;10.776;2023-05-02T21:03:04;102370.81;;;6.99;61.43
52469;BME280;38381;53.688;10.776;2023-05-02T21:08:04;102379.94;;;6.93;62.05
52469;BME280;38381;53.688;10.776;2023-05-02T21:13:05;102379.59;;;6.85;62.29
52469;BME280;38381;53.688;10.776;2023-05-02T21:18:05;102379.13;;;6.94;62.56
52469;BME280;38381;53.688;10.776;2023-05-02T21:23:06;102389.91;;;6.85;62.66
52469;BME280;38381;53.688;10.776;2023-05-02T21:28:08;102389.97;;;6.69;63.41
52469;BME280;38381;53.688;10.776;2023-05-02T21:33:08;102387.63;;;6.73;62.97
52469;BME280;38381;53.688;10.776;2023-05-02T21:38:09;102392.94;;;6.58;63.72
52469;BME280;38381;53.688;10.776;2023-05-02T21:43:09;102392.94;;;6.58;63.80
52469;BME280;38381;53.688;10.776;2023-05-02T21:48:11;102388.66;;;6.59;63.42
52469;BME280;38381;53.688;10.776;2023-05-02T21:53:12;102386.84;;;6.58;64.07
52469;BME280;38381;53.688;10.776;2023-05-02T21:58:13;102389.06;;;6.68;63.58
52469;BME280;38381;53.688;10.776;2023-05-02T22:03:13;102389.38;;;6.56;63.52
52469;BME280;38381;53.688;10.776;2023-05-02T22:08:14;102382.06;;;6.48;64.42
52469;BME280;38381;53.688;10.776;2023-05-02T22:13:14;102384.28;;;6.40;64.06
52469;BME280;38381;53.688;10.776;2023-05-02T22:18:16;102392.72;;;6.37;65.11
52469;BME280;38381;53.688;10.776;2023-05-02T22:23:16;102395.25;;;6.36;64.77
52469;BME280;38381;53.688;10.776;2023-05-02T22:28:17;102398.47;;;6.32;65.58
52469;BME280;38381;53.688;10.776;2023-05-02T22:33:17;102402.91;;;6.34;65.08
52469;BME280;38381;53.688;10.776;2023-05-02T22:38:18;102408.47;;;6.26;65.85
52469;BME280;38381;53.688;10.776;2023-05-02T22:43:19;102400.81;;;6.27;65.58
52469;BME280;38381;53.688;10.776;2023-05-02T22:48:19;102408.53;;;6.27;66.45
52469;BME280;38381;53.688;10.776;2023-05-02T22:53:20;102406.78;;;6.26;66.00
52469;BME280;38381;53.688;10.776;2023-05-02T22:58:25;102403.63;;;6.32;65.91
52469;BME280;38381;53.688;10.776;2023-05-02T23:03:25;102412.25;;;6.32;66.00
52469;BME280;38381;53.688;10.776;2023-05-02T23:08:25;102413.84;;;6.30;65.70
52469;BME280;38381;53.688;10.776;2023-05-02T23:13:26;102414.34;;;6.23;66.56
52469;BME280;38381;53.688;10.776;2023-05-02T23:18:26;102416.34;;;6.29;66.65
52469;BME280;38381;53.688;10.776;2023-05-02T23:23:27;102416.13;;;6.24;66.90
52469;BME280;38381;53.688;10.776;2023-05-02T23:28:27;102415.59;;;6.31;67.33
52469;BME280;38381;53.688;10.776;2023-05-02T23:33:29;102428.13;;;6.23;67.46
52469;BME280;38381;53.688;10.776;2023-05-02T23:38:30;102428.19;;;6.25;67.76
52469;BME280;38381;53.688;10.776;2023-05-02T23:43:30;102430.84;;;6.27;67.45
52469;BME280;38381;53.688;10.776;2023-05-02T23:48:31;102428.47;;;6.13;68.18
52469;BME280;38381;53.688;10.776;2023-05-02T23:53:31;102428.91;;;6.22;68.04
52469;BME280;38381;53.688;10.776;2023-05-02T23:58:32;102425.56;;;6.07;67.58
